Terminal Aerodrome Forecast
Issued by NWS Grand Forks, ND

Home | Current Version | Previous Version | Graphics & Text | Print | Product List | Glossary On
Versions: 1 2 3 4 5 6 7 8 9 10 11 12 13 14 15 16 17 18 19 20 21 22
111
FTUS43 KFGF 192323 CCA
TAFGFK
TAF COR
KGFK 192323Z 2000/2024 14017G22KT P6SM -TSRA SCT025CB OVC100
     FM200400 17012G24KT P6SM OVC040
     FM200500 21011KT P6SM OVC060
     FM200900 26007KT P6SM BKN100
     FM202200 22012KT P6SM FEW250=

USA.gov is the U.S. government's official web portal to all federal, state and local government web resources and services.